Youngwood, PA

7:34 AM EST on December 18, 2014 (GMT -0500)
Midway St. Clair | Change Station
CLOSE
Current Station
Personal Weather Station
Location: Greensburg, PA
Elevation: 1135 ft
Nearby Weather Stations

Elev 1135 ft 40.27 °N, 79.56 °W | Updated 10 seconds ago

Overcast
Overcast
27.9 °F
Feels Like 28 °F
N
3.0
Wind Variable Wind from WSW
Gusts 9.0 mph

Today
High -- | Low -- °F
--% Chance of Precip.
Yesterday
High -- | Low -- °F
Precip. -- in
7:35 AM 4:54 PM
Waning Crescent, 15% visible
Pressure 30.16 in
Visibility 10.0 miles
Clouds Overcast 2200 ft
Windchill 28 °F
Dew Point 22 °F
Humidity 78%
Rainfall 0.00 in
Snow Depth Not available.
UV 0 out of 12
Pollen .10 out of 12
Air Quality Not available.
Flu Activity Not available.
METAR KAGC 181153Z 28007KT 10SM OVC022 M03/M08 A3016

More Conditions Fewer Conditions

Pressure 30.16 in
Visibility 10.0 miles
Clouds Overcast 2200 ft
Windchill 28 °F
Dew Point 22 °F
Humidity 78%
Rainfall 0.00 in
Snow Depth Not available.
UV 0 out of 12
Pollen .10 out of 12
Air Quality Not available.
Flu Activity Not available.
METAR KAGC 181153Z 28007KT 10SM OVC022 M03/M08 A3016

More Conditions Fewer Conditions

10-Day Weather Forecast

Almanac

Astronomy

Dec. 18, 2014 Rise Set
Actual Time
Civil Twilight
Nautical Twilight
Astronomical Twilight
Moon
Length of Visible Light
Length of Day
Tomorrow will be .
, % of the Moon is Illuminated

Today's Extremes

State Highs State Lows

Community

WunderPhotos

Upload Photos

1,778,923 photos uploaded!

WunderBlogs® & News

Nearby

Air Quality

  Air Quality AQ Index Pollutant
Not available.

Snow Depth

Station Depth Elevation

Earthquake Activity

City Distance Mag. Time & Date
Minimum magnitude displayed is 2.5.

Coastal Water Temperatures

Place Temperature

Nearby Weather Stations